aviador You're here:

EGUL Decoded Metar

LAKENHEATH in ENGLAND
Report Time2018-05-28 09:24:00
UTC Time2018-05-28 09:51:32
Flight Rules vfr VFR
Wind340° at 03 kt
W.Decomp.*RWY 06: 0.6 kt HW 2.9 kt LCW
W.Rank340° ranks 33
Current wind is below 340° avg. (6.6)
Visibility9999 m
Phenomena:N/A
Clouds:Scattered 011 Hf
Expected CloudBase > 1,600 ft AGL from Temp-Dew spread
CeilingNone
Temp19°C (ISA +4)
Dew Point15°C (78% RH)
QNH1019 hPa
Density Alt535 ft
Elevation33 ft
Report Wrong Elevation
Raw Report
EGUL 280924Z AUTO 34003KT 9999 SCT011 19/15 A3008 RMK AO2 SLP189 $=

Extra information for EGUL:More info

Metar Taf Metar & Taf Last 4 Metars F.Rules Stats Wind Profile Meteogram Temp Stats Airport Information Weather charts Add Link Nearby VenuesMetar ALERT Operation Metar Decoded Social comments